Tindal, Australia
Current Conditions -  °F | °C
As of 9:00 PM on Saturday 25 Oct 2014 (Local Time) from YPTN Reporting Station
Clear Clear  
Wind Chill: 90°   Ceiling: Unl
Heat Index: 90°   Visibility: 6mi
Dew Point: 45°   Wind: 10mph
Humidity: 21%   Direction: 90°E
Pressure: 29.91"   Gusts: NA
Location:  14.52°S, 132.38°E
Report Text: YPTN 251200Z AUTO 09009KT 9999 // NCD 32/07 Q1013
Loading
Personal Weather Stations






























Interactive Weather Map
Tropical Storm Tracking
New forecast layout! Learn more

10-Day Weather Forecast

Advertisements
Track Severe Weather on mobile